createdAt,value
2022-08-26T00:07:12.384Z,56.71
2022-08-26T00:16:48.966Z,57.96
2022-08-26T00:26:22.475Z,57.70
2022-08-26T00:35:53.820Z,57.38
2022-08-26T00:45:26.595Z,57.88
2022-08-26T00:55:00.175Z,58.81
2022-08-26T01:04:34.921Z,59.02
2022-08-26T01:14:05.804Z,60.35
2022-08-26T01:23:40.325Z,60.49
2022-08-26T01:33:14.381Z,61.24
2022-08-26T01:42:46.568Z,61.05
2022-08-26T01:52:20.798Z,61.33
2022-08-26T02:01:57.224Z,61.69
2022-08-26T02:11:29.916Z,61.89
2022-08-26T02:21:06.605Z,62.26
2022-08-26T02:30:38.438Z,62.78
2022-08-26T02:40:14.429Z,63.12
2022-08-26T02:49:47.351Z,63.86
2022-08-26T02:59:20.761Z,64.10
2022-08-26T03:08:52.362Z,63.83
2022-08-26T03:18:24.937Z,63.95
2022-08-26T03:27:59.380Z,64.75
2022-08-26T03:37:34.811Z,65.17
2022-08-26T03:47:06.646Z,65.23
2022-08-26T03:56:40.369Z,64.73
2022-08-26T04:06:15.830Z,64.21
2022-08-26T04:15:48.821Z,64.10
2022-08-26T04:25:21.103Z,64.64
2022-08-26T04:34:57.335Z,65.55
2022-08-26T04:44:31.748Z,66.27
2022-08-26T04:54:06.401Z,66.06
2022-08-26T05:03:40.839Z,66.98
2022-08-26T05:13:15.444Z,66.49
2022-08-26T05:22:49.571Z,66.54
2022-08-26T05:32:24.013Z,66.62
2022-08-26T05:41:58.471Z,66.90
2022-08-26T05:51:31.539Z,66.75
2022-08-26T06:01:06.498Z,66.77
2022-08-26T06:10:41.082Z,68.46
2022-08-26T06:20:16.327Z,65.14
2022-08-26T06:29:53.085Z,64.85
2022-08-26T06:39:26.273Z,65.11
2022-08-26T06:49:01.312Z,66.34
2022-08-26T06:58:36.555Z,65.60
2022-08-26T07:08:11.662Z,64.07
2022-08-26T07:17:48.401Z,64.76
2022-08-26T07:18:50.761Z,64.54
2022-08-26T07:28:25.758Z,64.50
2022-08-26T07:29:29.914Z,64.37
2022-08-26T07:30:32.328Z,63.39
2022-08-26T07:31:39.341Z,63.51
2022-08-26T07:32:37.519Z,63.83
2022-08-26T07:33:40.130Z,64.06
2022-08-26T07:34:42.684Z,63.42
2022-08-26T07:35:45.149Z,63.30
2022-08-26T07:45:19.022Z,62.79
2022-08-26T07:46:27.309Z,61.96
2022-08-26T07:47:25.375Z,61.63
2022-08-26T07:48:26.624Z,61.10
2022-08-26T07:49:29.151Z,61.83
2022-08-26T07:50:34.223Z,61.37
2022-08-26T07:51:35.686Z,61.27
2022-08-26T07:52:38.039Z,60.93
2022-08-26T07:53:40.591Z,60.66
2022-08-26T07:54:44.686Z,60.73
2022-08-26T07:55:47.133Z,60.85
2022-08-26T07:56:49.539Z,60.27
2022-08-26T07:57:53.625Z,60.57
2022-08-26T08:07:25.937Z,59.40
2022-08-26T08:08:29.639Z,59.13
2022-08-26T08:09:32.002Z,58.64
2022-08-26T08:10:34.526Z,58.66
2022-08-26T08:11:38.663Z,58.12
2022-08-26T08:12:41.014Z,57.74
2022-08-26T08:13:43.515Z,57.68
2022-08-26T08:14:45.985Z,57.64
2022-08-26T08:15:48.557Z,57.68
2022-08-26T08:16:54.523Z,57.91
2022-08-26T08:17:59.042Z,57.12
2022-08-26T08:19:00.620Z,57.36
2022-08-26T08:20:04.558Z,56.65
2022-08-26T08:21:19.823Z,56.71
2022-08-26T08:22:17.029Z,56.99
2022-08-26T08:23:11.952Z,57.06
2022-08-26T08:24:16.079Z,57.24
2022-08-26T08:25:18.421Z,57.29
2022-08-26T08:26:20.922Z,57.12
2022-08-26T08:27:24.217Z,56.25
2022-08-26T08:28:25.925Z,55.50
2022-08-26T08:29:30.037Z,54.80
2022-08-26T08:30:32.435Z,55.00
2022-08-26T08:31:56.424Z,54.98
2022-08-26T08:32:38.952Z,55.05
2022-08-26T08:33:41.412Z,54.20
2022-08-26T08:35:47.922Z,54.35
2022-08-26T08:45:21.727Z,54.34
2022-08-26T08:46:24.097Z,53.71
2022-08-26T08:47:26.633Z,52.74
2022-08-26T08:48:30.719Z,53.13
2022-08-26T08:49:33.115Z,53.11
2022-08-26T08:50:35.785Z,53.44
2022-08-26T08:51:40.055Z,52.82
2022-08-26T08:52:42.463Z,52.44
2022-08-26T08:53:45.000Z,52.57
2022-08-26T08:54:49.156Z,52.29
2022-08-26T08:55:51.490Z,52.80
2022-08-26T08:56:55.568Z,52.38
2022-08-26T08:58:02.086Z,52.34
2022-08-26T08:59:02.045Z,52.20
2022-08-26T09:00:04.466Z,51.73
2022-08-26T09:01:07.223Z,51.83
2022-08-26T09:02:09.735Z,51.48
2022-08-26T09:03:12.240Z,51.37
2022-08-26T09:04:17.419Z,51.93
2022-08-26T09:05:21.293Z,51.88
2022-08-26T09:06:23.662Z,51.31
2022-08-26T09:07:26.205Z,51.03
2022-08-26T09:08:28.729Z,50.67
2022-08-26T09:09:31.174Z,51.28
2022-08-26T09:10:33.667Z,50.68
2022-08-26T09:11:36.221Z,50.72
2022-08-26T09:12:38.727Z,50.95
2022-08-26T09:13:41.300Z,50.77
2022-08-26T09:23:14.502Z,48.63
2022-08-26T09:24:17.082Z,49.65
2022-08-26T09:25:21.211Z,49.94
2022-08-26T09:26:24.764Z,48.55
2022-08-26T09:27:27.738Z,47.98
2022-08-26T09:28:30.088Z,48.18
2022-08-26T09:29:32.581Z,47.54
2022-08-26T09:30:35.141Z,47.25
2022-08-26T09:31:37.641Z,48.77
2022-08-26T09:32:41.737Z,48.32
2022-08-26T09:33:44.160Z,47.49
2022-08-26T09:34:46.637Z,47.17
2022-08-26T09:35:50.788Z,46.94
2022-08-26T09:36:53.107Z,47.74
2022-08-26T09:37:55.589Z,47.47
2022-08-26T09:38:58.164Z,48.07
2022-08-26T09:40:00.614Z,47.04
2022-08-26T09:41:03.208Z,46.96
2022-08-26T09:42:07.152Z,46.90
2022-08-26T09:43:11.231Z,47.08
2022-08-26T09:44:15.588Z,47.47
2022-08-26T09:45:17.531Z,47.67
2022-08-26T09:46:20.173Z,47.60
2022-08-26T09:47:22.584Z,48.20
2022-08-26T09:48:25.113Z,47.76
2022-08-26T09:49:27.672Z,47.74
2022-08-26T09:50:30.270Z,46.78
2022-08-26T09:51:32.837Z,46.92
2022-08-26T09:52:36.971Z,47.48
2022-08-26T09:53:40.923Z,47.64
2022-08-26T09:54:43.398Z,46.53
2022-08-26T09:55:47.597Z,46.24
2022-08-26T09:56:51.722Z,46.28
2022-08-26T09:57:55.077Z,45.19
2022-08-26T09:58:58.497Z,45.51
2022-08-26T10:00:00.706Z,45.65
2022-08-26T10:01:03.334Z,46.14
2022-08-26T10:02:05.914Z,46.35
2022-08-26T10:03:08.442Z,46.86
2022-08-26T10:04:11.111Z,47.19
2022-08-26T10:05:13.486Z,46.40
2022-08-26T10:06:15.959Z,46.54
2022-08-26T10:07:20.126Z,45.82
2022-08-26T10:08:22.973Z,46.40
2022-08-26T10:09:24.960Z,46.73
2022-08-26T10:10:27.488Z,45.56
2022-08-26T10:11:31.616Z,46.25
2022-08-26T10:12:34.090Z,46.52
2022-08-26T10:13:36.569Z,45.75
2022-08-26T10:23:11.173Z,45.78
2022-08-26T10:24:13.291Z,46.68
2022-08-26T10:25:15.952Z,45.56
2022-08-26T10:26:18.539Z,44.79
2022-08-26T10:27:21.826Z,44.92
2022-08-26T10:28:25.237Z,46.49
2022-08-26T10:29:29.207Z,45.90
2022-08-26T10:30:34.224Z,45.09
2022-08-26T10:31:40.414Z,45.41
2022-08-26T10:32:41.719Z,45.28
2022-08-26T10:33:44.074Z,44.61
2022-08-26T10:34:46.582Z,44.36
2022-08-26T10:35:49.096Z,44.44
2022-08-26T10:37:10.886Z,44.38
2022-08-26T10:37:56.977Z,43.24
2022-08-26T10:39:00.695Z,43.40
2022-08-26T10:40:03.087Z,43.84
2022-08-26T10:41:09.861Z,44.54
2022-08-26T10:42:09.644Z,42.47
2022-08-26T10:43:12.109Z,43.24
2022-08-26T10:44:16.144Z,44.60
2022-08-26T10:45:20.109Z,44.36
2022-08-26T10:46:27.253Z,44.08
2022-08-26T10:47:27.990Z,43.37
2022-08-26T10:48:35.258Z,42.97
2022-08-26T10:49:35.952Z,44.09
2022-08-26T10:50:38.327Z,42.60
2022-08-26T10:51:42.492Z,43.10
2022-08-26T10:52:46.544Z,43.01
2022-08-26T10:53:51.345Z,41.83
2022-08-26T10:54:51.509Z,41.97
2022-08-26T10:55:54.029Z,42.90
2022-08-26T10:56:58.122Z,41.24
2022-08-26T10:58:00.493Z,41.94
2022-08-26T10:59:02.960Z,42.60
2022-08-26T11:00:07.036Z,42.15
2022-08-26T11:01:10.308Z,41.61
2022-08-26T11:02:13.579Z,42.79
2022-08-26T11:03:22.154Z,43.76
2022-08-26T11:04:19.911Z,43.88
2022-08-26T11:05:22.429Z,41.67
2022-08-26T11:06:24.959Z,41.96
2022-08-26T11:07:27.407Z,42.58
2022-08-26T11:08:29.916Z,42.71
2022-08-26T11:09:32.490Z,42.11
2022-08-26T11:10:34.915Z,41.70
2022-08-26T11:11:38.930Z,42.40
2022-08-26T11:12:42.874Z,41.50
2022-08-26T11:13:45.160Z,41.22
2022-08-26T11:14:53.764Z,42.09
2022-08-26T11:15:50.196Z,42.60
2022-08-26T11:25:29.273Z,42.35
2022-08-26T11:26:35.706Z,42.48
2022-08-26T11:27:29.260Z,42.53
2022-08-26T11:28:34.268Z,43.71
2022-08-26T11:29:40.318Z,42.86
2022-08-26T11:30:45.068Z,42.46
2022-08-26T11:31:49.004Z,42.05
2022-08-26T11:32:51.362Z,42.64
2022-08-26T11:33:54.119Z,41.62
2022-08-26T11:34:56.485Z,41.97
2022-08-26T11:35:58.961Z,42.36
2022-08-26T11:37:05.091Z,43.09
2022-08-26T11:38:09.100Z,42.38
2022-08-26T11:39:11.367Z,42.99
2022-08-26T11:40:15.535Z,40.71
2022-08-26T11:41:17.886Z,41.16
2022-08-26T11:42:20.446Z,40.71
2022-08-26T11:43:22.920Z,40.52
2022-08-26T11:44:25.494Z,40.95
2022-08-26T11:45:29.615Z,40.17
2022-08-26T11:46:32.015Z,39.60
2022-08-26T11:47:34.537Z,39.93
2022-08-26T11:48:38.667Z,39.78
2022-08-26T11:49:41.721Z,40.49
2022-08-26T11:50:45.173Z,41.05
2022-08-26T11:51:48.325Z,41.25
2022-08-26T11:52:50.201Z,39.18
2022-08-26T11:53:54.325Z,40.51
2022-08-26T11:54:56.636Z,40.34
2022-08-26T11:55:59.243Z,40.89
2022-08-26T11:57:07.410Z,39.42
2022-08-26T11:58:07.584Z,38.60
2022-08-26T11:59:11.267Z,39.13
2022-08-26T12:00:15.810Z,38.74
2022-08-26T12:01:16.214Z,39.09
2022-08-26T12:02:20.301Z,38.44
2022-08-26T12:03:22.962Z,38.51
2022-08-26T12:04:25.317Z,38.31
2022-08-26T12:05:29.504Z,38.80
2022-08-26T12:06:30.364Z,39.12
2022-08-26T12:07:32.893Z,38.53
2022-08-26T12:08:35.355Z,38.60
2022-08-26T12:09:37.925Z,38.50
2022-08-26T12:10:40.503Z,38.85
2022-08-26T12:11:44.676Z,36.94
2022-08-26T12:12:47.013Z,38.56
2022-08-26T12:13:49.581Z,36.42
2022-08-26T12:14:53.699Z,36.33
2022-08-26T12:15:57.755Z,36.32
2022-08-26T12:17:00.195Z,35.05
2022-08-26T12:18:04.335Z,35.44
2022-08-26T12:19:06.758Z,35.56
2022-08-26T12:20:11.066Z,36.51
2022-08-26T12:21:13.495Z,35.26
2022-08-26T12:22:17.562Z,35.60
2022-08-26T12:23:21.610Z,36.67
2022-08-26T12:24:26.279Z,35.43
2022-08-26T12:25:28.156Z,35.32
2022-08-26T12:26:30.648Z,34.64
2022-08-26T12:27:33.197Z,35.75
2022-08-26T12:28:37.294Z,35.26
2022-08-26T12:29:39.639Z,35.53
2022-08-26T12:30:43.759Z,35.19
2022-08-26T12:31:46.165Z,35.61
2022-08-26T12:32:50.949Z,36.10
2022-08-26T12:33:52.792Z,34.15
2022-08-26T12:34:55.385Z,34.87
2022-08-26T12:35:57.811Z,34.96
2022-08-26T12:38:04.480Z,35.17
2022-08-26T12:39:06.874Z,35.82
2022-08-26T12:40:09.420Z,35.66
2022-08-26T12:41:13.503Z,36.04
2022-08-26T12:42:17.489Z,37.18
2022-08-26T12:43:21.465Z,37.89
2022-08-26T12:44:23.832Z,36.76
2022-08-26T12:45:26.331Z,36.91
2022-08-26T12:46:28.841Z,36.79
2022-08-26T12:47:41.790Z,36.37
2022-08-26T12:48:33.813Z,36.27
2022-08-26T12:49:37.854Z,36.57
2022-08-26T12:50:41.817Z,37.73
2022-08-26T12:51:45.784Z,37.57
2022-08-26T12:52:48.178Z,38.24
2022-08-26T12:53:50.640Z,38.28
2022-08-26T12:54:56.603Z,38.23
2022-08-26T12:55:55.592Z,38.39
2022-08-26T12:56:59.687Z,38.66
2022-08-26T12:58:02.063Z,39.44
2022-08-26T12:59:06.298Z,40.30
2022-08-26T13:00:08.535Z,41.01
2022-08-26T13:01:11.153Z,41.54
2022-08-26T13:02:13.650Z,42.23
2022-08-26T13:03:17.624Z,42.50
2022-08-26T13:04:20.006Z,43.09
2022-08-26T13:05:22.474Z,43.54
2022-08-26T13:06:24.973Z,43.99
2022-08-26T13:07:27.455Z,44.42
2022-08-26T13:08:30.023Z,44.99
2022-08-26T13:09:32.481Z,45.87
2022-08-26T13:10:36.546Z,46.61
2022-08-26T13:11:38.873Z,47.44
2022-08-26T13:12:41.366Z,47.61
2022-08-26T13:13:43.877Z,45.88
2022-08-26T13:14:46.311Z,45.05
2022-08-26T13:15:48.938Z,44.98
2022-08-26T13:16:51.320Z,44.76
2022-08-26T13:17:55.401Z,45.92
2022-08-26T13:18:59.363Z,45.38
2022-08-26T13:20:03.954Z,49.44
2022-08-26T13:21:05.759Z,51.01
2022-08-26T13:22:08.199Z,51.55
2022-08-26T13:23:10.695Z,51.36
2022-08-26T13:24:13.033Z,50.22
2022-08-26T13:25:17.107Z,49.35
2022-08-26T13:26:19.488Z,49.71
2022-08-26T13:27:21.952Z,50.22
2022-08-26T13:28:24.467Z,50.16
2022-08-26T13:29:26.933Z,50.27
2022-08-26T13:30:29.455Z,51.09
2022-08-26T13:31:31.995Z,49.06
2022-08-26T13:32:34.457Z,49.57
2022-08-26T13:33:37.003Z,48.78
2022-08-26T13:34:39.560Z,48.66
2022-08-26T13:35:43.696Z,48.77
2022-08-26T13:36:46.140Z,48.95
2022-08-26T13:37:50.235Z,49.33
2022-08-26T13:38:54.296Z,48.80
2022-08-26T13:39:58.344Z,48.94
2022-08-26T13:41:00.712Z,49.12
2022-08-26T13:42:03.188Z,49.24
2022-08-26T13:43:05.704Z,49.49
2022-08-26T13:44:08.242Z,49.91
2022-08-26T13:45:12.430Z,50.48
2022-08-26T13:46:14.708Z,51.02
2022-08-26T13:47:18.838Z,51.30
2022-08-26T13:48:23.304Z,51.78
2022-08-26T13:49:25.249Z,52.49
2022-08-26T13:50:27.636Z,53.56
2022-08-26T13:51:30.100Z,52.91
2022-08-26T13:52:32.597Z,53.75
2022-08-26T13:53:36.698Z,53.83
2022-08-26T13:54:39.036Z,53.94
2022-08-26T13:55:41.534Z,54.37
2022-08-26T13:56:44.030Z,54.35
2022-08-26T13:57:46.571Z,54.59
2022-08-26T13:58:49.532Z,54.71
2022-08-26T13:59:51.756Z,54.26
2022-08-26T14:00:54.304Z,54.85
2022-08-26T14:01:58.338Z,53.82
2022-08-26T14:03:02.366Z,53.85
2022-08-26T14:04:04.736Z,52.80
2022-08-26T14:05:07.263Z,52.71
2022-08-26T14:06:09.673Z,53.28
2022-08-26T14:07:12.188Z,51.26
2022-08-26T14:08:17.379Z,50.94
2022-08-26T14:09:19.566Z,50.65
2022-08-26T14:10:22.014Z,50.57
2022-08-26T14:11:26.159Z,51.13
2022-08-26T14:12:28.420Z,51.45
2022-08-26T14:13:30.910Z,50.39
2022-08-26T14:23:21.012Z,50.68
2022-08-26T14:24:07.910Z,50.63
2022-08-26T14:25:12.098Z,50.90
2022-08-26T14:26:27.863Z,51.07
2022-08-26T14:27:20.104Z,51.43
2022-08-26T14:28:22.540Z,51.20
2022-08-26T14:29:26.617Z,51.06
2022-08-26T14:30:28.954Z,51.64
2022-08-26T14:31:31.466Z,51.85
2022-08-26T14:32:33.880Z,51.58
2022-08-26T14:33:38.028Z,52.14
2022-08-26T14:34:42.024Z,52.70
2022-08-26T14:35:48.037Z,52.95
2022-08-26T14:36:48.508Z,52.66
2022-08-26T14:37:50.909Z,52.85
2022-08-26T14:38:54.992Z,53.44
2022-08-26T14:39:57.451Z,53.63
2022-08-26T14:40:59.870Z,53.59
2022-08-26T14:42:02.374Z,53.72
2022-08-26T14:43:06.448Z,54.29
2022-08-26T14:44:08.836Z,54.42
2022-08-26T14:45:12.971Z,54.50
2022-08-26T14:46:15.392Z,54.51
2022-08-26T14:47:17.910Z,54.45
2022-08-26T14:48:20.356Z,54.50
2022-08-26T14:49:24.472Z,54.75
2022-08-26T14:50:26.867Z,54.68
2022-08-26T14:51:29.349Z,55.10
2022-08-26T14:52:31.824Z,54.98
2022-08-26T14:53:35.919Z,54.85
2022-08-26T14:54:39.962Z,55.30
2022-08-26T14:55:42.252Z,55.57
2022-08-26T14:56:46.345Z,55.30
2022-08-26T14:57:50.288Z,55.41
2022-08-26T14:58:52.623Z,55.49
2022-08-26T14:59:55.195Z,55.82
2022-08-26T15:00:57.764Z,56.09
2022-08-26T15:02:00.393Z,56.02
2022-08-26T15:03:02.873Z,56.13
2022-08-26T15:04:05.227Z,56.10
2022-08-26T15:05:07.731Z,56.53
2022-08-26T15:06:10.227Z,56.49
2022-08-26T15:07:12.932Z,55.72
2022-08-26T15:08:15.246Z,55.98
2022-08-26T15:09:17.802Z,56.11
2022-08-26T15:10:20.316Z,55.55
2022-08-26T15:11:22.841Z,55.30
2022-08-26T15:12:25.407Z,55.24
2022-08-26T15:13:27.941Z,55.01
2022-08-26T15:14:33.028Z,55.10
2022-08-26T15:15:36.007Z,55.22
2022-08-26T15:16:39.292Z,55.18
2022-08-26T15:17:43.368Z,55.09
2022-08-26T15:18:45.698Z,55.28
2022-08-26T15:19:49.946Z,55.02
2022-08-26T15:20:53.895Z,54.92
2022-08-26T15:21:56.320Z,55.23
2022-08-26T15:23:02.141Z,55.26
2022-08-26T15:24:01.333Z,55.43
2022-08-26T15:25:03.764Z,55.49
2022-08-26T15:26:06.284Z,55.51
2022-08-26T15:27:10.384Z,55.78
2022-08-26T15:28:12.760Z,55.28
2022-08-26T15:29:16.848Z,55.67
2022-08-26T15:30:19.322Z,55.36
2022-08-26T15:31:21.872Z,55.44
2022-08-26T15:32:24.373Z,55.80
2022-08-26T15:33:26.824Z,56.80
2022-08-26T15:34:30.946Z,56.17
2022-08-26T15:35:35.665Z,56.21
2022-08-26T15:36:37.333Z,56.16
2022-08-26T15:37:39.916Z,56.15
2022-08-26T15:38:42.360Z,56.51
2022-08-26T15:39:44.898Z,56.42
2022-08-26T15:40:49.064Z,56.83
2022-08-26T15:41:51.386Z,56.81
2022-08-26T15:43:06.101Z,56.90
2022-08-26T15:43:59.422Z,57.57
2022-08-26T15:45:01.861Z,57.03
2022-08-26T15:46:04.425Z,57.62
2022-08-26T15:47:06.850Z,57.44
2022-08-26T15:48:09.317Z,57.58
2022-08-26T15:49:17.703Z,58.21
2022-08-26T15:50:15.869Z,58.02
2022-08-26T15:51:18.304Z,57.83
2022-08-26T15:52:20.821Z,57.87
2022-08-26T15:53:24.961Z,57.99
2022-08-26T15:54:27.282Z,58.29
2022-08-26T15:55:29.786Z,58.30
2022-08-26T15:56:32.311Z,58.72
2022-08-26T15:57:34.819Z,58.26
2022-08-26T15:58:37.283Z,57.95
2022-08-26T15:59:41.362Z,58.19
2022-08-26T16:00:43.773Z,57.85
2022-08-26T16:01:47.832Z,58.32
2022-08-26T16:02:51.787Z,58.10
2022-08-26T16:03:54.208Z,57.98
2022-08-26T16:04:56.660Z,58.17
2022-08-26T16:06:00.791Z,58.31
2022-08-26T16:07:03.134Z,58.08
2022-08-26T16:08:07.365Z,58.21
2022-08-26T16:09:11.248Z,58.36
2022-08-26T16:10:13.575Z,58.21
2022-08-26T16:11:17.658Z,57.57
2022-08-26T16:12:20.025Z,57.87
2022-08-26T16:13:22.516Z,57.52
2022-08-26T16:14:25.002Z,57.56
2022-08-26T16:15:27.586Z,57.01
2022-08-26T16:16:31.708Z,57.10
2022-08-26T16:17:34.051Z,57.05
2022-08-26T16:18:39.250Z,56.97
2022-08-26T16:19:41.551Z,57.20
2022-08-26T16:20:44.105Z,56.37
2022-08-26T16:21:48.126Z,56.40
2022-08-26T16:22:50.504Z,56.73
2022-08-26T16:23:54.567Z,56.39
2022-08-26T16:24:57.030Z,56.21
2022-08-26T16:26:01.043Z,56.09
2022-08-26T16:27:05.028Z,55.79
2022-08-26T16:28:11.409Z,56.03
2022-08-26T16:29:09.971Z,55.94
2022-08-26T16:30:14.092Z,55.70
2022-08-26T16:31:16.495Z,56.07
2022-08-26T16:32:18.939Z,55.66
2022-08-26T16:33:26.815Z,55.62
2022-08-26T16:34:23.896Z,55.46
2022-08-26T16:35:26.440Z,55.18
2022-08-26T16:36:28.921Z,55.59
2022-08-26T16:37:34.457Z,55.82
2022-08-26T16:38:37.113Z,55.68
2022-08-26T16:39:40.172Z,55.16
2022-08-26T16:40:41.903Z,55.51
2022-08-26T16:41:44.371Z,55.60
2022-08-26T16:42:46.935Z,55.61
2022-08-26T16:43:49.464Z,55.88
2022-08-26T16:44:51.946Z,55.48
2022-08-26T16:45:54.542Z,55.82
2022-08-26T16:46:58.899Z,55.68
2022-08-26T16:48:02.514Z,55.14
2022-08-26T16:49:06.441Z,55.34
2022-08-26T16:50:08.864Z,55.54
2022-08-26T16:51:11.395Z,55.17
2022-08-26T16:52:14.074Z,55.04
2022-08-26T16:53:16.420Z,55.05
2022-08-26T16:54:20.477Z,55.20
2022-08-26T16:55:24.426Z,55.28
2022-08-26T16:56:27.706Z,55.21
2022-08-26T16:57:30.914Z,55.19
2022-08-26T16:58:34.884Z,55.06
2022-08-26T16:59:37.239Z,54.98
2022-08-26T17:00:39.714Z,54.99
2022-08-26T17:01:42.307Z,55.32
2022-08-26T17:02:44.813Z,55.36
2022-08-26T17:03:48.842Z,55.97
2022-08-26T17:04:51.315Z,55.58
2022-08-26T17:05:55.384Z,56.03
2022-08-26T17:06:59.401Z,55.96
2022-08-26T17:08:01.752Z,56.02
2022-08-26T17:09:05.821Z,56.27
2022-08-26T17:10:08.224Z,56.18
2022-08-26T17:11:12.261Z,55.83
2022-08-26T17:12:16.269Z,56.47
2022-08-26T17:13:25.998Z,56.41
2022-08-26T17:14:22.578Z,56.37
2022-08-26T17:15:25.134Z,56.09
2022-08-26T17:16:29.193Z,56.47
2022-08-26T17:17:31.550Z,56.88
2022-08-26T17:18:34.040Z,56.51
2022-08-26T17:19:40.882Z,56.56
2022-08-26T17:20:42.103Z,56.68
2022-08-26T17:21:44.484Z,56.83
2022-08-26T17:22:48.613Z,56.99
2022-08-26T17:23:50.959Z,56.94
2022-08-26T17:24:55.064Z,57.57
2022-08-26T17:25:59.059Z,57.53
2022-08-26T17:27:01.438Z,57.35
2022-08-26T17:28:05.851Z,57.11
2022-08-26T17:29:09.569Z,57.25
2022-08-26T17:30:13.552Z,57.02
2022-08-26T17:31:16.165Z,57.21
2022-08-26T17:32:20.228Z,57.44
2022-08-26T17:33:24.546Z,57.69
2022-08-26T17:34:26.590Z,57.24
2022-08-26T17:35:29.132Z,57.44
2022-08-26T17:36:33.184Z,57.47
2022-08-26T17:37:35.515Z,57.52
2022-08-26T17:38:37.996Z,57.26
2022-08-26T17:39:42.086Z,57.42
2022-08-26T17:40:44.483Z,57.60
2022-08-26T17:41:48.553Z,57.65
2022-08-26T17:42:50.887Z,57.83
2022-08-26T17:43:53.589Z,57.92
2022-08-26T17:44:56.054Z,57.75
2022-08-26T17:45:58.653Z,57.83
2022-08-26T17:47:02.687Z,58.28
2022-08-26T17:48:05.055Z,58.21
2022-08-26T17:49:07.586Z,58.13
2022-08-26T17:58:39.984Z,59.75
2022-08-26T17:59:44.210Z,59.98
2022-08-26T18:00:48.254Z,59.73
2022-08-26T18:01:50.768Z,59.59
2022-08-26T18:02:55.014Z,59.69
2022-08-26T18:03:59.632Z,59.47
2022-08-26T18:13:30.057Z,60.78
2022-08-26T18:23:04.410Z,61.61
2022-08-26T18:32:38.839Z,62.16
2022-08-26T18:42:14.673Z,62.77
2022-08-26T18:43:17.177Z,62.52
2022-08-26T18:52:52.094Z,62.94
2022-08-26T19:02:24.886Z,63.27
2022-08-26T19:11:59.957Z,63.63
2022-08-26T19:21:33.092Z,64.06
2022-08-26T19:31:08.664Z,64.31
2022-08-26T19:40:42.714Z,64.66
2022-08-26T19:50:15.608Z,64.96
2022-08-26T19:59:50.035Z,65.32
2022-08-26T20:09:26.110Z,65.25
2022-08-26T20:18:56.551Z,65.63
2022-08-26T20:19:59.046Z,65.51
2022-08-26T20:29:32.009Z,66.18
2022-08-26T20:39:06.057Z,66.43
2022-08-26T20:48:38.348Z,66.53
2022-08-26T20:58:14.206Z,66.68
2022-08-26T21:07:45.079Z,67.06
2022-08-26T21:17:21.323Z,67.15
2022-08-26T21:26:54.585Z,67.65
2022-08-26T21:36:24.723Z,67.72
2022-08-26T21:45:58.236Z,67.85
2022-08-26T21:55:30.883Z,68.23
2022-08-26T22:05:03.098Z,68.65
2022-08-26T22:14:36.743Z,69.00
2022-08-26T22:24:08.733Z,69.37
2022-08-26T22:33:39.948Z,69.47
2022-08-26T22:43:13.203Z,69.94
2022-08-26T22:52:45.368Z,69.79
2022-08-26T23:02:20.339Z,70.04
2022-08-26T23:11:54.238Z,70.43
2022-08-26T23:21:26.708Z,70.37
2022-08-26T23:31:02.427Z,70.66
2022-08-26T23:40:32.025Z,70.79
2022-08-26T23:50:05.918Z,71.06
2022-08-26T23:59:39.512Z,71.04
